createdAt,value
2017-11-16T18:43:38.763Z,46.70
2017-11-16T18:44:38.780Z,52.80
2017-11-16T18:45:38.795Z,58.60
2017-11-16T18:46:38.811Z,54.10
2017-11-16T18:47:38.826Z,52.20
2017-11-16T18:48:38.852Z,57.30
2017-11-16T18:49:38.865Z,50.60
2017-11-16T18:50:38.880Z,59.70
2017-11-16T18:51:38.899Z,57.80
2017-11-16T18:52:38.917Z,59.90
2017-11-16T18:53:38.935Z,66.10
2017-11-16T18:54:38.955Z,63.30
2017-11-16T18:55:38.986Z,65.10
2017-11-16T18:56:38.993Z,63.90
2017-11-16T18:57:39.011Z,68.60
2017-11-16T18:58:39.032Z,62.20
2017-11-16T18:59:39.050Z,68.50
2017-11-16T19:00:39.069Z,66.20
2017-11-16T19:01:39.090Z,72.90
2017-11-16T19:02:39.110Z,74.80
2017-11-16T19:03:39.135Z,63.10
2017-11-16T19:04:39.148Z,71.70
2017-11-16T19:05:39.168Z,66.40
2017-11-16T19:06:39.188Z,69.30
2017-11-16T19:07:39.207Z,70.80
2017-11-16T19:08:39.227Z,75.40
2017-11-16T19:09:39.248Z,74.20
2017-11-16T19:10:39.267Z,76.80
2017-11-16T19:11:39.287Z,71.70
2017-11-16T19:12:39.305Z,74.60
2017-11-16T19:13:39.326Z,80.10
2017-11-16T19:14:39.345Z,78.50
2017-11-16T19:15:39.365Z,81.20
2017-11-16T19:16:39.384Z,72.70
2017-11-16T19:17:39.405Z,82.30
2017-11-16T19:18:39.426Z,76.80
2017-11-16T19:19:39.444Z,76.40
2017-11-16T19:20:39.466Z,82.00
2017-11-16T19:21:39.485Z,80.90
2017-11-16T19:22:39.506Z,80.40
2017-11-16T19:23:39.525Z,85.70
2017-11-16T19:24:39.544Z,78.10
2017-11-16T19:25:39.564Z,88.90
2017-11-16T19:26:39.588Z,83.10
2017-11-16T19:27:39.611Z,83.20
2017-11-16T19:28:39.624Z,69.00
2017-11-16T19:29:39.643Z,72.40
2017-11-16T19:30:39.666Z,77.30
2017-11-16T19:31:39.684Z,69.20
2017-11-16T19:32:39.703Z,79.60
2017-11-16T19:33:39.725Z,87.30
2017-11-16T19:34:39.796Z,87.30
2017-11-16T19:35:39.774Z,89.20
2017-11-16T19:36:39.782Z,82.10
2017-11-16T19:37:39.804Z,76.80
2017-11-16T19:38:39.822Z,81.80
2017-11-16T19:39:39.853Z,84.60
2017-11-16T19:40:39.962Z,83.10
2017-11-16T19:41:39.884Z,70.80
2017-11-16T19:42:39.904Z,74.50
2017-11-16T19:43:39.925Z,79.70
2017-11-16T19:44:39.942Z,79.00
2017-11-16T19:45:39.962Z,74.10
2017-11-16T19:46:39.983Z,74.70
2017-11-16T19:47:40.001Z,84.50
2017-11-16T19:48:40.022Z,82.40
2017-11-16T19:49:40.042Z,77.40
2017-11-16T19:50:40.062Z,79.10
2017-11-16T19:51:40.080Z,83.90
2017-11-16T19:52:40.100Z,79.10
2017-11-16T19:53:40.122Z,80.40
2017-11-16T19:54:40.141Z,80.30
2017-11-16T19:55:40.162Z,83.00
2017-11-16T19:56:40.181Z,83.00
2017-11-16T19:57:40.201Z,74.90
2017-11-16T19:58:40.224Z,79.80
2017-11-16T19:59:40.239Z,79.30
2017-11-16T20:00:40.259Z,79.60
2017-11-16T20:01:40.281Z,75.70
2017-11-16T20:02:40.350Z,81.80
2017-11-16T20:03:40.320Z,93.00
2017-11-16T20:04:40.339Z,81.50
2017-11-16T20:05:40.360Z,94.10
2017-11-16T20:06:40.381Z,78.30
2017-11-16T20:07:40.398Z,82.90
2017-11-16T20:08:40.468Z,84.70
2017-11-16T20:09:40.440Z,96.20
2017-11-16T20:10:40.460Z,96.10
2017-11-16T20:11:40.481Z,89.30
2017-11-16T20:12:40.501Z,81.30
2017-11-16T20:13:40.517Z,92.50
2017-11-16T20:14:40.538Z,90.20
2017-11-16T20:15:40.558Z,100.00
2017-11-16T20:16:40.577Z,94.00
2017-11-16T20:17:40.597Z,88.90
2017-11-16T20:18:40.617Z,100.20
2017-11-16T20:19:40.688Z,91.20
2017-11-16T20:20:40.657Z,94.00
2017-11-16T20:21:40.676Z,82.50
2017-11-16T20:22:40.703Z,83.50
2017-11-16T20:23:40.715Z,87.00
2017-11-16T20:24:40.736Z,92.00
2017-11-16T20:25:40.757Z,93.00
2017-11-16T20:26:40.776Z,83.40
2017-11-16T20:27:40.797Z,90.30
2017-11-16T20:28:40.813Z,94.10
2017-11-16T20:29:40.840Z,91.80
2017-11-16T20:30:40.855Z,95.90
2017-11-16T20:31:40.928Z,99.30
2017-11-16T20:32:40.893Z,88.60
2017-11-16T20:33:40.922Z,92.60
2017-11-16T20:34:40.932Z,92.50
2017-11-16T20:35:40.952Z,98.20
2017-11-16T20:36:41.023Z,93.60
2017-11-16T20:37:40.993Z,90.30
2017-11-16T20:38:41.013Z,102.30
2017-11-16T20:39:41.030Z,92.80
2017-11-16T20:40:41.051Z,84.40
2017-11-16T20:41:41.070Z,80.10
2017-11-16T20:42:41.091Z,101.50
2017-11-16T20:43:41.111Z,96.30
2017-11-16T20:44:41.130Z,88.50
2017-11-16T20:45:41.150Z,91.90
2017-11-16T20:46:41.220Z,420.50
2017-11-16T20:47:41.189Z,106.10
2017-11-16T20:48:41.208Z,112.50
2017-11-16T20:49:41.229Z,100.80
2017-11-16T20:50:41.254Z,91.30
2017-11-16T20:51:41.271Z,94.90
2017-11-16T20:52:41.287Z,102.20
2017-11-16T20:53:41.309Z,93.10
2017-11-16T20:54:41.329Z,93.70
2017-11-16T20:55:41.346Z,98.90
2017-11-16T20:56:41.366Z,107.00
2017-11-16T20:57:41.386Z,96.50
2017-11-16T20:58:41.407Z,92.10
2017-11-16T20:59:41.428Z,97.20
2017-11-16T21:00:41.445Z,100.10
2017-11-16T21:01:41.468Z,90.90
2017-11-16T21:02:41.485Z,111.00
2017-11-16T21:03:41.505Z,96.20
2017-11-16T21:04:41.535Z,88.20
2017-11-16T21:05:41.544Z,100.90
2017-11-16T21:06:41.570Z,105.70
2017-11-16T21:07:41.588Z,95.40
2017-11-16T21:08:41.604Z,96.40
2017-11-16T21:09:41.623Z,102.00
2017-11-16T21:10:41.644Z,96.00
2017-11-16T21:11:41.664Z,102.60
2017-11-16T21:12:41.692Z,103.40
2017-11-16T21:13:41.703Z,97.90
2017-11-16T21:14:41.774Z,102.60
2017-11-16T21:15:41.743Z,107.80
2017-11-16T21:16:41.762Z,101.40
2017-11-16T21:17:41.782Z,97.90
2017-11-16T21:18:41.803Z,109.00
2017-11-16T21:19:41.825Z,110.10
2017-11-16T21:20:41.841Z,113.70
2017-11-16T21:21:41.911Z,145.00
2017-11-16T21:22:41.880Z,117.00
2017-11-16T21:23:41.901Z,118.70
2017-11-16T21:24:41.924Z,114.10
2017-11-16T21:25:41.941Z,120.30
2017-11-16T21:26:41.959Z,118.00
2017-11-16T21:27:41.978Z,111.20
2017-11-16T21:28:41.999Z,110.00
2017-11-16T21:29:42.018Z,116.80
2017-11-16T21:30:42.038Z,117.30
2017-11-16T21:31:42.056Z,105.60
2017-11-16T21:32:42.075Z,104.40
2017-11-16T21:33:42.096Z,111.40
2017-11-16T21:34:42.116Z,115.60
2017-11-16T21:35:42.134Z,130.80
2017-11-16T21:36:42.154Z,116.40
2017-11-16T21:37:42.174Z,118.90
2017-11-16T21:38:42.194Z,115.60
2017-11-16T21:39:42.213Z,116.40
2017-11-16T21:40:42.234Z,116.10
2017-11-16T21:41:42.254Z,119.00
2017-11-16T21:42:42.273Z,124.60
2017-11-16T21:43:42.292Z,123.50
2017-11-16T21:44:42.319Z,105.70
2017-11-16T21:45:42.332Z,115.50
2017-11-16T21:46:42.353Z,118.30
2017-11-16T21:47:42.370Z,127.50
2017-11-16T21:48:42.391Z,130.60
2017-11-16T21:49:42.410Z,120.50
2017-11-16T21:50:42.431Z,121.00
2017-11-16T21:51:42.449Z,112.80
2017-11-16T21:52:42.471Z,114.20
2017-11-16T21:53:42.489Z,130.60
2017-11-16T21:54:42.511Z,185.90
2017-11-16T21:55:42.528Z,110.90
2017-11-16T21:56:42.598Z,129.60
2017-11-16T21:57:42.569Z,125.50
2017-11-16T21:58:42.590Z,123.10
2017-11-16T21:59:42.612Z,132.10
2017-11-16T22:00:42.631Z,160.70
2017-11-16T22:01:42.647Z,132.00
2017-11-16T22:02:42.667Z,144.50
2017-11-16T22:03:42.687Z,126.00
2017-11-16T22:04:42.707Z,133.00
2017-11-16T22:05:42.728Z,118.70
2017-11-16T22:06:42.746Z,124.10
2017-11-16T22:07:42.772Z,114.00
2017-11-16T22:08:42.786Z,107.20
2017-11-16T22:09:42.805Z,120.30
2017-11-16T22:10:42.877Z,139.80
2017-11-16T22:11:42.846Z,138.40
2017-11-16T22:12:42.866Z,128.00
2017-11-16T22:13:42.886Z,143.30
2017-11-16T22:14:42.904Z,141.30
2017-11-16T22:15:42.932Z,143.90
2017-11-16T22:16:42.949Z,182.20
2017-11-16T22:17:42.964Z,137.20
2017-11-16T22:18:42.986Z,151.00
2017-11-16T22:19:43.003Z,143.80
2017-11-16T22:20:43.025Z,155.80
2017-11-16T22:21:43.043Z,136.70
2017-11-16T22:22:43.065Z,156.10
2017-11-16T22:23:43.082Z,170.30
2017-11-16T22:24:43.102Z,154.60
2017-11-16T22:25:43.123Z,147.30
2017-11-16T22:26:43.145Z,163.70
2017-11-16T22:27:43.163Z,180.20
2017-11-16T22:28:43.185Z,162.40
2017-11-16T22:29:43.205Z,166.90
2017-11-16T22:30:43.223Z,160.60
2017-11-16T22:31:43.242Z,154.40
2017-11-16T22:32:43.261Z,157.10
2017-11-16T22:33:43.282Z,147.60
2017-11-16T22:34:43.301Z,159.30
2017-11-16T22:35:43.321Z,155.40
2017-11-16T22:36:43.342Z,158.00
2017-11-16T22:37:43.361Z,156.70
2017-11-16T22:38:43.381Z,178.00
2017-11-16T22:39:43.402Z,177.10
2017-11-16T22:40:43.424Z,181.30
2017-11-16T22:41:43.441Z,161.40
2017-11-16T22:42:43.462Z,171.90
2017-11-16T22:43:43.495Z,156.30
2017-11-16T22:44:43.500Z,158.20
2017-11-16T22:45:43.520Z,149.70
2017-11-16T22:46:43.539Z,173.20
2017-11-16T22:47:43.560Z,167.30
2017-11-16T22:48:43.579Z,235.90
2017-11-16T22:49:43.600Z,185.10
2017-11-16T22:50:43.620Z,162.10
2017-11-16T22:51:43.639Z,164.60
2017-11-16T22:52:43.659Z,158.20
2017-11-16T22:53:43.680Z,172.20
2017-11-16T22:54:43.700Z,184.10
2017-11-16T22:55:43.718Z,180.60
2017-11-16T22:56:43.738Z,173.50
2017-11-16T22:57:43.759Z,185.80
2017-11-16T22:58:43.779Z,177.10
2017-11-16T22:59:43.796Z,176.30
2017-11-16T23:00:43.818Z,184.00
2017-11-16T23:01:43.846Z,185.80
2017-11-16T23:02:43.857Z,189.70
2017-11-16T23:03:43.877Z,157.90
2017-11-16T23:04:43.896Z,161.90
2017-11-16T23:05:43.919Z,160.00
2017-11-16T23:06:43.936Z,165.20
2017-11-16T23:07:43.956Z,171.00
2017-11-16T23:08:43.977Z,167.30
2017-11-16T23:09:43.996Z,146.10
2017-11-16T23:10:44.017Z,163.00
2017-11-16T23:11:44.036Z,179.80
2017-11-16T23:12:44.061Z,163.00
2017-11-16T23:13:44.076Z,163.20
2017-11-16T23:14:44.097Z,168.00
2017-11-16T23:15:44.120Z,174.60
2017-11-16T23:16:44.134Z,162.30
2017-11-16T23:17:44.156Z,180.10
2017-11-16T23:18:44.176Z,170.20
2017-11-16T23:19:44.194Z,178.50
2017-11-16T23:20:44.215Z,182.30
2017-11-16T23:21:44.233Z,162.90
2017-11-16T23:22:44.254Z,185.10
2017-11-16T23:23:44.272Z,158.90
2017-11-16T23:24:44.293Z,163.60
2017-11-16T23:25:44.314Z,163.10
2017-11-16T23:26:44.332Z,166.70
2017-11-16T23:27:44.352Z,180.60
2017-11-16T23:28:44.373Z,181.70
2017-11-16T23:29:44.392Z,173.00
2017-11-16T23:30:44.418Z,171.90
2017-11-16T23:31:44.433Z,169.50
2017-11-16T23:32:44.451Z,178.30
2017-11-16T23:33:44.472Z,165.60
2017-11-16T23:34:44.491Z,177.80
2017-11-16T23:35:44.561Z,158.60
2017-11-16T23:36:44.531Z,161.00
2017-11-16T23:37:44.550Z,171.40
2017-11-16T23:38:44.570Z,170.90
2017-11-16T23:39:44.590Z,182.70
2017-11-16T23:40:44.609Z,168.10
2017-11-16T23:41:44.629Z,162.60
2017-11-16T23:42:44.649Z,160.10
2017-11-16T23:43:44.668Z,158.70
2017-11-16T23:44:44.691Z,152.70
2017-11-16T23:45:44.714Z,149.70
2017-11-16T23:46:44.728Z,150.50
2017-11-16T23:47:44.748Z,153.00
2017-11-16T23:48:44.767Z,155.20
2017-11-16T23:49:44.794Z,139.00
2017-11-16T23:50:44.958Z,148.90
2017-11-16T23:51:44.826Z,142.40
2017-11-16T23:52:44.846Z,146.30
2017-11-16T23:53:44.866Z,135.60
2017-11-16T23:54:44.887Z,137.20
2017-11-16T23:55:44.905Z,142.90
2017-11-16T23:56:44.927Z,145.70
2017-11-16T23:57:44.945Z,143.10
2017-11-16T23:58:44.965Z,128.40
2017-11-16T23:59:44.985Z,141.70
